Weather observations for the past three days for
Topeka, Forbes Field
| Date | Time (cdt) | Wind (kph) | Vis. (km) | Weather | Sky Cond. | Temperature (ºC) | Relative Humidity | Wind Chill (°C) | Heat Index (°C) | Pressure | Precipitation (cm) | ||||||
|---|---|---|---|---|---|---|---|---|---|---|---|---|---|---|---|---|---|
| Air | Dwpt | 6 hour | altimeter (cm) | sea level (mb) | 1 hr | 3 hr | 6 hr | ||||||||||
| Max. | Min. | ||||||||||||||||
| 08 | 15:53 | N 9 | 16.09 | Overcast | FEW075 OVC095 | 17.2 | 12.8 | 76% | 75.67 | 1008.5 | 0.03 | ||||||
| 08 | 14:53 | W 13 | 16.09 | Overcast | OVC090 | 17.2 | 12.8 | 76% | 75.69 | 1008.6 | |||||||
| 08 | 13:53 | N 11 | 16.09 | Light Rain | FEW075 OVC095 | 17.2 | 12.8 | 76% | 75.64 | 1007.9 | 0.03 | ||||||
| 08 | 12:53 | Vrbl 6 | 16.09 | Light Rain | OVC090 | 16.7 | 12.8 | 17.8 | 13.3 | 78% | 75.67 | 1008.4 | |||||
| 08 | 11:53 | SE 6 | 16.09 | Mostly Cloudy | FEW075 BKN100 | 17.8 | 10.6 | 63% | 75.72 | 1008.8 | |||||||
| 08 | 10:53 | SE 7 | 16.09 | Light Rain | FEW070 BKN090 OVC110 | 16.7 | 10 | 65% | 75.64 | 1007.9 | |||||||
| 08 | 09:53 | S 13 | 16.09 | Mostly Cloudy | FEW095 BKN120 | 16.1 | 8.9 | 63% | 75.72 | 1008.9 | |||||||
| 08 | 08:53 | S 17 | 16.09 | Fair | CLR | 15 | 8.3 | 64% | 75.69 | 1008.6 | |||||||
| 08 | 07:53 | SW 7 | 16.09 | A Few Clouds | FEW100 | 13.9 | 7.8 | 67% | 75.72 | 1009.0 | |||||||
| 08 | 06:53 | S 20 | 16.09 | Fair | CLR | 13.3 | 7.2 | 15.6 | 12.8 | 67% | 75.64 | 1008.0 | |||||
| 08 | 05:53 | S 17 | 16.09 | Partly Cloudy | FEW090 SCT110 | 13.3 | 6.7 | 65% | 75.67 | 1008.3 | |||||||
| 08 | 04:53 | Calm | 16.09 | Mostly Cloudy | BKN120 | 13.9 | 6.7 | 62% | 75.67 | 1008.2 | |||||||
| 08 | 03:53 | Calm | 16.09 | A Few Clouds | FEW120 | 13.3 | 6.7 | 65% | 75.67 | 1008.1 | |||||||
| 08 | 02:53 | Calm | 16.09 | A Few Clouds | FEW110 | 15 | 6.7 | 58% | 75.69 | 1008.5 | |||||||
| 08 | 01:53 | Calm | 16.09 | Mostly Cloudy | BKN110 | 15 | 6.7 | 58% | 75.74 | 1009.4 | |||||||
| 08 | 00:53 | Calm | 16.09 | Overcast | FEW060 SCT075 OVC100 | 15.6 | 6.7 | 20.6 | 15 | 56% | 75.84 | 1010.5 | |||||
| 07 | 23:53 | Calm | 16.09 | Fair | CLR | 15 | 6.7 | 58% | 75.79 | 1010.2 | |||||||
| 07 | 22:53 | S 20 | 16.09 | Fair | CLR | 15.6 | 6.7 | 56% | 75.82 | 1010.3 | |||||||
| 07 | 21:53 | S 15 | 16.09 | Fair | CLR | 16.7 | 6.7 | 52% | 75.77 | 1009.8 | |||||||
| 07 | 20:53 | S 17 | 16.09 | Fair | CLR | 16.7 | 7.2 | 54% | 75.74 | 1009.4 | |||||||
| 07 | 19:53 | S 17 | 16.09 | Fair | CLR | 18.9 | 5.6 | 42% | 75.72 | 1009.0 | |||||||
| 07 | 18:53 | SW 22 | 16.09 | Fair | CLR | 20.6 | 5 | 22.2 | 17.8 | 36% | 75.72 | 1009.2 | |||||
| 07 | 17:53 | SW 20 | 16.09 | Fair | CLR | 21.7 | 5.6 | 35% | 75.77 | 1009.7 | |||||||
| 07 | 16:53 | SW 19 G 35 | 16.09 | Fair | CLR | 21.1 | 5.6 | 37% | 75.79 | 1010.2 | |||||||
| 07 | 15:53 | SW 26 G 44 | 16.09 | Fair | CLR | 21.1 | 5.6 | 37% | 75.84 | 1010.9 | |||||||
| 07 | 14:53 | SW 31 G 43 | 16.09 | Fair | CLR | 20 | 6.7 | 42% | 75.95 | 1012.1 | |||||||
| 07 | 13:53 | SW 41 G 50 | 16.09 | A Few Clouds and Breezy | FEW055 | 19.4 | 6.7 | 44% | 76 | 1012.9 | |||||||
| 07 | 12:53 | SW 37 G 48 | 16.09 | A Few Clouds and Breezy | FEW049 | 17.8 | 6.1 | 18.3 | 6.1 | 46% | 76.05 | 1013.6 | |||||
| 07 | 11:53 | SW 39 G 52 | 16.09 | Partly Cloudy and Breezy | SCT047 | 16.7 | 6.1 | 50% | 76.12 | 1014.7 | |||||||
| 07 | 10:53 | W 28 G 46 | 16.09 | Fair | CLR | 15 | 6.1 | 56% | 76.17 | 1015.6 | |||||||
| 07 | 09:53 | SW 24 | 16.09 | Fair | CLR | 14.4 | 6.7 | 60% | 76.23 | 1016.2 | |||||||
| 07 | 08:53 | SW 24 | 16.09 | Fair | CLR | 12.2 | 6.1 | 67% | 76.25 | 1016.6 | |||||||
| 07 | 07:53 | SW 15 | 16.09 | Fair | CLR | 8.9 | 5.6 | 80% | 7 | 76.25 | 1016.6 | ||||||
| 07 | 06:53 | S 9 | 16.09 | Fair | CLR | 6.1 | 4.4 | 7.8 | 5 | 89% | 4 | 76.25 | 1016.7 | ||||
| 07 | 05:53 | SW 9 | 16.09 | Fair | CLR | 6.7 | 3.9 | 83% | 5 | 76.25 | 1016.6 | ||||||
| 07 | 04:53 | SW 13 | 16.09 | Fair | CLR | 6.7 | 3.9 | 83% | 4 | 76.28 | 1016.7 | ||||||
| 07 | 03:53 | SW 13 | 16.09 | Fair | CLR | 7.2 | 3.9 | 80% | 5 | 76.28 | 1017.0 | ||||||
| 07 | 02:53 | SW 13 | 16.09 | Fair | CLR | 7.2 | 3.9 | 80% | 5 | 76.3 | 1017.3 | ||||||
| 07 | 01:53 | SW 11 | 16.09 | Fair | CLR | 6.7 | 3.9 | 83% | 5 | 76.33 | 1017.7 | ||||||
| 07 | 00:53 | SW 9 | 16.09 | Fair | CLR | 7.8 | 4.4 | 15 | 7.8 | 79% | 6 | 76.35 | 1018.0 | ||||
| 06 | 23:53 | S 11 | 16.09 | Fair | CLR | 8.3 | 3.9 | 74% | 7 | 76.38 | 1018.2 | ||||||
| 06 | 22:53 | S 11 | 16.09 | Fair | CLR | 8.3 | 2.8 | 69% | 7 | 76.35 | 1018.1 | ||||||
| 06 | 21:53 | S 11 | 16.09 | Fair | CLR | 8.9 | 1.7 | 61% | 7 | 76.35 | 1018.1 | ||||||
| 06 | 08:53 | W 13 | 16.09 | Overcast | OVC | 10 | 3 | 62% | 8 | 76.45 | 0.0 | ||||||
| 06 | 07:53 | W 7 | 16.09 | Fair | CLR | 8 | 4 | 76% | 7 | 76.38 | 0.0 | ||||||
| 06 | 06:53 | Calm | 16.09 | Fair | CLR | 7 | 5 | 87% | 76.28 | 0.0 | |||||||
| 05 | 21:53 | NE 7 | 16.09 | Overcast | OVC085 | 11.1 | 2.8 | 57% | 76.05 | 1013.8 | |||||||
| 05 | 20:53 | N 9 | 16.09 | Overcast | OVC090 | 11.1 | 1.7 | 53% | 75.97 | 1012.8 | |||||||
| 05 | 19:53 | N 11 | 16.09 | Overcast | OVC085 | 12.2 | 2.2 | 51% | 75.92 | 1012.2 | |||||||
| 05 | 18:53 | N 13 | 16.09 | Overcast | OVC085 | 12.8 | 5 | 12.8 | 8.9 | 59% | 75.9 | 1011.7 | |||||
| 05 | 17:53 | N 13 | 16.09 | Overcast | OVC085 | 12.2 | 6.7 | 69% | 75.9 | 1011.5 | |||||||
| 05 | 16:53 | NW 11 | 16.09 | Overcast | OVC080 | 11.7 | 5.6 | 66% | 75.9 | 1011.7 | |||||||
| Date | Time (cdt) | Wind (kph) | Vis. (km) | Weather | Sky Cond. | Air | Dwpt | Max. | Min. | Relative Humidity | Wind Chill (°C) | Heat Index (°C) | altimeter (cm) | sea level (mb) | 1 hr | 3 hr | 6 hr |
| 6 hour | |||||||||||||||||
| Temperature (ºC) | Pressure | Precipitation (cm) | |||||||||||||||